Time;durP1;ratioP1;P1;durP2;ratioP2;P2;SDS_P1;SDS_P2;PMS_P1;PMS_P2;Temp;Humidity;BMP_temperature;BMP_pressure;BME280_temperature;BME280_humidity;BME280_pressure;Samples;Min_cycle;Max_cycle;Signal;HPM_P1;HPM_P2
2020/12/22 00:01:12;;;;;;;23.95;18.13;;;5.80;1.10;;;;;;5046454;28;20209;-55
2020/12/22 00:03:41;;;;;;;25.67;18.50;;;5.80;1.00;;;;;;5045685;28;20882;-52
2020/12/22 00:06:08;;;;;;;28.48;20.60;;;5.80;1.00;;;;;;5030400;28;20702;-50
2020/12/22 00:08:34;;;;;;;27.20;18.20;;;5.70;1.00;;;;;;5044017;28;20618;-53
2020/12/22 00:11:00;;;;;;;27.17;19.13;;;5.70;1.00;;;;;;5047611;28;20272;-52
2020/12/22 00:13:25;;;;;;;26.13;18.57;;;5.70;1.00;;;;;;5048437;28;20193;-51
2020/12/22 00:15:51;;;;;;;27.03;18.57;;;5.70;1.30;;;;;;5048595;28;20474;-51
2020/12/22 00:18:17;;;;;;;27.80;19.33;;;5.70;1.80;;;;;;5046808;28;20247;-50
2020/12/22 00:20:43;;;;;;;29.60;19.70;;;5.70;1.00;;;;;;5049082;28;20221;-51
2020/12/22 00:23:08;;;;;;;26.77;19.27;;;5.70;1.00;;;;;;5047185;28;20182;-52
2020/12/22 00:25:45;;;;;;;23.20;18.60;;;5.80;1.00;;;;;;5048617;28;20193;-51
2020/12/22 00:28:15;;;;;;;28.92;19.67;;;5.80;1.00;;;;;;5048423;28;20216;-52
2020/12/22 00:30:41;;;;;;;24.52;18.23;;;5.80;1.00;;;;;;5046735;28;20192;-52
2020/12/22 00:33:07;;;;;;;26.23;18.83;;;5.80;1.00;;;;;;5047784;28;20923;-52
2020/12/22 00:35:33;;;;;;;28.95;19.70;;;5.80;1.00;;;;;;5047960;28;20825;-54
2020/12/22 00:37:59;;;;;;;27.37;18.37;;;5.80;1.00;;;;;;5048488;28;20207;-52
2020/12/22 00:40:26;;;;;;;28.08;19.50;;;5.80;1.00;;;;;;5046284;28;20210;-52
2020/12/22 00:42:51;;;;;;;25.95;19.05;;;5.90;1.00;;;;;;5048949;28;20178;-50
2020/12/22 00:45:18;;;;;;;24.40;18.80;;;5.80;1.00;;;;;;5047798;28;20238;-52
2020/12/22 00:47:44;;;;;;;24.80;17.55;;;5.80;1.00;;;;;;5053894;28;20194;-54
2020/12/22 00:50:10;;;;;;;25.63;18.20;;;5.80;1.00;;;;;;5052807;28;20188;-50
2020/12/22 00:52:36;;;;;;;25.63;18.07;;;5.80;1.00;;;;;;5048732;28;20177;-51
2020/12/22 00:55:01;;;;;;;24.63;18.03;;;5.80;1.00;;;;;;5037577;28;20256;-54
2020/12/22 00:57:27;;;;;;;28.37;18.97;;;5.80;1.00;;;;;;5046633;28;20245;-51
2020/12/22 00:59:52;;;;;;;25.97;18.90;;;5.80;1.00;;;;;;5046520;28;20181;-53
2020/12/22 01:02:18;;;;;;;27.73;19.07;;;5.70;1.00;;;;;;5044397;28;22045;-54
2020/12/22 01:04:43;;;;;;;29.37;19.30;;;5.70;1.00;;;;;;5048485;28;20190;-52
2020/12/22 01:07:09;;;;;;;25.60;18.07;;;5.70;1.00;;;;;;5046719;28;20193;-51
2020/12/22 01:09:35;;;;;;;26.60;18.37;;;5.70;2.10;;;;;;5047265;28;20213;-49
2020/12/22 01:12:00;;;;;;;25.03;17.57;;;5.70;1.00;;;;;;5047431;28;20556;-53
2020/12/22 01:14:26;;;;;;;30.47;18.10;;;5.70;1.00;;;;;;5047441;28;20302;-52
2020/12/22 01:16:55;;;;;;;30.40;19.30;;;5.70;1.00;;;;;;5051712;28;20186;-53
2020/12/22 01:19:20;;;;;;;25.35;18.35;;;5.70;1.00;;;;;;5051696;28;20932;-51
2020/12/22 01:21:50;;;;;;;24.87;18.90;;;5.70;2.10;;;;;;5034619;28;20218;-52
2020/12/22 01:24:15;;;;;;;22.73;17.02;;;5.70;1.00;;;;;;5052932;28;20182;-52
2020/12/22 01:26:41;;;;;;;26.57;18.27;;;5.70;2.00;;;;;;5054523;28;20181;-50
2020/12/22 01:29:07;;;;;;;23.80;17.87;;;5.70;2.60;;;;;;5033646;28;20596;-50
2020/12/22 01:31:32;;;;;;;28.37;18.87;;;5.70;2.90;;;;;;5051008;28;20264;-52
2020/12/22 01:33:58;;;;;;;25.10;17.73;;;5.70;1.10;;;;;;5050879;28;20201;-52
2020/12/22 01:36:25;;;;;;;23.30;17.40;;;5.80;1.40;;;;;;5042523;28;20190;-54
2020/12/22 01:38:51;;;;;;;24.92;17.10;;;5.80;1.00;;;;;;5050176;28;20275;-49
2020/12/22 01:41:18;;;;;;;22.88;17.73;;;5.80;1.00;;;;;;5044223;28;20224;-52
2020/12/22 01:44:10;;;;;;;24.05;17.02;;;5.80;1.00;;;;;;5046993;28;20249;-52
2020/12/22 01:46:41;;;;;;;23.70;16.35;;;5.80;1.00;;;;;;5050549;28;20175;-54
2020/12/22 01:49:18;;;;;;;23.27;16.08;;;5.80;1.00;;;;;;5050154;28;20273;-55
2020/12/22 01:51:45;;;;;;;24.08;16.60;;;5.90;1.00;;;;;;5051362;28;20181;-55
2020/12/22 01:54:13;;;;;;;23.95;16.80;;;5.90;1.00;;;;;;5050028;28;20192;-51
2020/12/22 01:56:38;;;;;;;22.45;17.05;;;5.90;1.00;;;;;;5046628;28;20602;-52
2020/12/22 01:59:05;;;;;;;22.30;16.57;;;5.90;1.00;;;;;;5051304;28;20196;-52
2020/12/22 02:01:32;;;;;;;23.20;16.08;;;5.90;1.00;;;;;;5050069;28;20210;-51
2020/12/22 02:03:59;;;;;;;21.45;16.52;;;5.90;1.00;;;;;;5043416;28;20704;-58
2020/12/22 02:06:28;;;;;;;24.05;16.63;;;5.90;1.00;;;;;;5050190;28;20174;-54
2020/12/22 02:08:54;;;;;;;20.38;15.07;;;5.90;1.00;;;;;;5052948;28;20315;-53
2020/12/22 02:11:29;;;;;;;22.85;16.40;;;5.90;1.00;;;;;;5050854;28;20604;-54
2020/12/22 02:13:58;;;;;;;19.60;15.43;;;5.90;4.00;;;;;;5050131;28;20193;-55
2020/12/22 02:16:24;;;;;;;21.33;14.70;;;6.00;4.60;;;;;;5051266;28;20202;-50
2020/12/22 02:18:51;;;;;;;19.40;14.82;;;6.00;3.40;;;;;;5045559;28;20306;-55
2020/12/22 02:21:17;;;;;;;19.23;14.30;;;6.00;2.00;;;;;;5048110;28;20941;-52
2020/12/22 02:23:49;;;;;;;17.98;13.80;;;6.00;2.50;;;;;;5059760;28;20674;-51
2020/12/22 02:26:21;;;;;;;18.80;14.40;;;6.00;6.50;;;;;;5048454;28;20277;-52
2020/12/22 02:28:47;;;;;;;19.10;13.73;;;6.00;5.30;;;;;;5047104;28;20193;-51
2020/12/22 02:31:13;;;;;;;18.88;13.88;;;6.00;5.10;;;;;;5038616;28;20322;-53
2020/12/22 02:33:39;;;;;;;20.87;14.90;;;6.00;6.90;;;;;;5050218;28;20187;-53
2020/12/22 02:36:12;;;;;;;19.93;15.03;;;6.00;6.10;;;;;;5049784;28;20230;-52
2020/12/22 02:38:39;;;;;;;22.20;15.05;;;6.00;6.10;;;;;;5049230;28;20261;-52
2020/12/22 02:41:05;;;;;;;17.75;13.23;;;6.10;11.40;;;;;;5047925;28;20407;-53
2020/12/22 02:43:31;;;;;;;21.73;14.55;;;6.10;22.40;;;;;;5041301;28;20241;-55
2020/12/22 02:45:57;;;;;;;21.07;15.30;;;6.00;27.00;;;;;;5043379;28;20197;-53
2020/12/22 02:48:23;;;;;;;19.17;14.80;;;6.00;39.80;;;;;;5048735;28;20197;-56
2020/12/22 02:50:49;;;;;;;22.77;14.97;;;6.00;44.90;;;;;;5046136;28;20194;-55
2020/12/22 02:53:14;;;;;;;21.73;14.40;;;5.90;58.30;;;;;;5049256;28;20440;-55
2020/12/22 02:55:40;;;;;;;22.13;16.53;;;5.80;69.90;;;;;;5049650;28;20444;-52
2020/12/22 02:58:06;;;;;;;21.80;15.67;;;5.70;85.80;;;;;;5048586;28;20765;-55
2020/12/22 03:00:31;;;;;;;23.13;16.80;;;5.70;95.10;;;;;;5051204;28;20217;-53
2020/12/22 03:02:57;;;;;;;20.00;15.73;;;5.60;98.80;;;;;;5049648;28;20275;-55
2020/12/22 03:05:23;;;;;;;24.40;17.03;;;5.60;99.90;;;;;;5043959;28;20190;-54
2020/12/22 03:07:49;;;;;;;22.77;16.83;;;5.50;99.90;;;;;;5047762;28;20204;-51
2020/12/22 03:10:17;;;;;;;21.75;16.83;;;5.50;99.90;;;;;;5043311;28;20428;-54
2020/12/22 03:12:45;;;;;;;23.75;16.02;;;5.50;99.90;;;;;;5044830;28;20174;-53
2020/12/22 03:15:11;;;;;;;23.77;15.45;;;5.50;99.90;;;;;;5048712;28;20196;-53
2020/12/22 03:17:38;;;;;;;23.17;15.70;;;5.50;99.90;;;;;;5049513;28;20203;-55
2020/12/22 03:20:10;;;;;;;24.02;16.23;;;5.40;99.90;;;;;;5048877;28;20184;-50
2020/12/22 03:22:37;;;;;;;22.38;15.65;;;5.40;99.90;;;;;;5045626;28;20196;-56
2020/12/22 03:25:04;;;;;;;20.70;15.40;;;5.30;99.90;;;;;;5050163;28;20249;-56
2020/12/22 03:27:30;;;;;;;21.33;15.27;;;5.40;99.90;;;;;;5046766;28;20512;-48
2020/12/22 03:29:56;;;;;;;20.47;14.93;;;5.40;99.90;;;;;;5047797;28;20186;-55
2020/12/22 03:32:21;;;;;;;21.87;13.77;;;5.40;99.90;;;;;;5046779;28;20436;-53
2020/12/22 03:34:47;;;;;;;19.53;14.10;;;5.40;99.90;;;;;;5049810;28;20190;-51
2020/12/22 03:37:19;;;;;;;19.00;13.00;;;5.40;99.90;;;;;;5051023;28;20196;-54
2020/12/22 03:39:46;;;;;;;17.65;13.20;;;5.40;99.90;;;;;;5047912;28;20796;-54
2020/12/22 03:42:12;;;;;;;18.40;13.07;;;5.50;99.90;;;;;;5039770;28;20285;-50
2020/12/22 03:44:38;;;;;;;16.07;11.43;;;5.50;99.90;;;;;;5048779;28;20300;-53
2020/12/22 03:47:03;;;;;;;16.53;11.20;;;5.50;99.90;;;;;;5048607;28;20534;-53
2020/12/22 03:49:29;;;;;;;13.97;10.13;;;5.50;99.90;;;;;;5032372;28;20182;-52
2020/12/22 03:51:54;;;;;;;14.73;10.93;;;5.50;99.90;;;;;;5036578;28;20732;-54
2020/12/22 03:54:20;;;;;;;14.40;10.53;;;5.50;99.90;;;;;;5048848;28;20227;-52
2020/12/22 03:56:46;;;;;;;12.87;10.30;;;5.50;99.90;;;;;;5045541;28;20190;-56
2020/12/22 03:59:11;;;;;;;11.93;8.50;;;5.50;99.90;;;;;;5047520;28;20542;-52
2020/12/22 04:01:37;;;;;;;10.77;9.00;;;5.60;99.90;;;;;;5047772;28;20237;-52
2020/12/22 04:04:02;;;;;;;9.73;7.77;;;5.60;99.90;;;;;;5048392;28;20174;-55
2020/12/22 04:06:28;;;;;;;11.00;7.80;;;5.60;99.90;;;;;;5047733;28;20209;-56
2020/12/22 04:08:54;;;;;;;10.60;8.70;;;5.60;99.90;;;;;;5047330;28;20213;-52
2020/12/22 04:11:20;;;;;;;10.20;8.43;;;5.60;99.90;;;;;;5048150;28;20190;-53
2020/12/22 04:13:46;;;;;;;12.50;8.98;;;5.60;99.90;;;;;;5049219;28;20193;-52
2020/12/22 04:16:12;;;;;;;9.05;7.78;;;5.60;99.90;;;;;;5039940;28;20516;-54
2020/12/22 04:18:38;;;;;;;10.73;8.10;;;5.60;99.90;;;;;;5047269;28;20190;-54
2020/12/22 04:21:03;;;;;;;10.73;7.63;;;5.70;99.90;;;;;;5045469;28;20202;-54
2020/12/22 04:23:29;;;;;;;14.60;9.03;;;5.70;99.90;;;;;;5044775;28;20283;-54
2020/12/22 04:25:55;;;;;;;10.90;8.30;;;5.60;99.90;;;;;;5048931;28;20181;-55
2020/12/22 04:28:21;;;;;;;12.97;8.87;;;5.60;99.90;;;;;;5046942;28;20186;-54
2020/12/22 04:30:46;;;;;;;10.23;8.30;;;5.60;99.90;;;;;;5046766;28;20574;-52
2020/12/22 04:33:12;;;;;;;12.00;9.10;;;5.60;99.90;;;;;;5048791;28;20513;-52
2020/12/22 04:35:39;;;;;;;12.30;10.00;;;5.60;99.90;;;;;;5048045;28;20202;-52
2020/12/22 04:38:05;;;;;;;11.85;9.07;;;5.60;99.90;;;;;;5047032;28;20461;-51
2020/12/22 04:40:31;;;;;;;13.37;9.90;;;5.60;99.90;;;;;;5047829;28;20202;-53
2020/12/22 04:42:59;;;;;;;12.77;9.75;;;5.60;99.90;;;;;;5047489;28;20751;-50
2020/12/22 04:45:28;;;;;;;12.43;9.20;;;5.60;99.90;;;;;;5047474;28;20716;-52
2020/12/22 04:47:55;;;;;;;12.32;9.63;;;5.70;99.90;;;;;;5038332;28;20633;-56
2020/12/22 04:50:21;;;;;;;14.05;9.40;;;5.70;99.90;;;;;;5050211;28;20186;-54
2020/12/22 04:52:47;;;;;;;14.45;9.45;;;5.70;99.90;;;;;;5052019;28;20269;-52
2020/12/22 04:55:14;;;;;;;12.90;9.70;;;5.70;99.90;;;;;;5051134;28;21057;-51
2020/12/22 04:57:51;;;;;;;12.43;9.50;;;5.80;99.90;;;;;;5049901;28;20186;-50
2020/12/22 05:00:18;;;;;;;11.43;8.80;;;5.80;99.90;;;;;;5050886;28;20182;-53
2020/12/22 05:02:44;;;;;;;12.45;9.35;;;5.80;99.90;;;;;;5051092;28;20548;-52
2020/12/22 05:05:10;;;;;;;10.77;8.80;;;5.80;99.90;;;;;;5046585;28;20182;-55
2020/12/22 05:07:37;;;;;;;10.70;8.52;;;5.90;99.90;;;;;;5052469;28;20186;-55
2020/12/22 05:10:11;;;;;;;10.43;7.80;;;5.90;99.90;;;;;;5050404;28;21051;-53
2020/12/22 05:12:40;;;;;;;9.30;7.13;;;5.90;99.90;;;;;;5048090;28;20182;-53
2020/12/22 05:15:08;;;;;;;9.50;7.22;;;5.90;99.90;;;;;;5047356;28;20252;-53
2020/12/22 05:17:44;;;;;;;8.93;7.75;;;6.00;99.90;;;;;;5024498;28;20205;-54
2020/12/22 05:20:14;;;;;;;8.73;7.15;;;5.90;99.90;;;;;;5042413;28;20655;-53
2020/12/22 05:22:45;;;;;;;12.02;7.75;;;6.00;99.90;;;;;;5040947;28;20449;-55
2020/12/22 05:25:19;;;;;;;11.07;7.35;;;6.00;99.90;;;;;;5041833;28;20636;-54
2020/12/22 05:27:48;;;;;;;8.82;7.03;;;6.00;99.90;;;;;;5042731;28;20895;-56
2020/12/22 05:30:16;;;;;;;8.77;7.60;;;6.00;99.90;;;;;;5042741;28;20207;-54
2020/12/22 05:32:52;;;;;;;8.95;7.20;;;6.00;99.90;;;;;;5042483;28;20236;-54
2020/12/22 05:35:21;;;;;;;9.65;7.05;;;6.00;99.90;;;;;;5040938;28;20189;-54
2020/12/22 05:37:47;;;;;;;10.05;6.70;;;6.10;99.90;;;;;;5054281;28;20269;-52
2020/12/22 05:40:14;;;;;;;8.00;5.97;;;6.00;99.90;;;;;;5046911;28;20629;-55
2020/12/22 05:42:44;;;;;;;8.05;6.35;;;6.10;99.90;;;;;;5050775;28;20189;-54
2020/12/22 05:45:10;;;;;;;7.40;5.78;;;6.00;99.90;;;;;;5051098;28;20570;-55
2020/12/22 05:47:36;;;;;;;8.53;6.40;;;6.00;99.90;;;;;;5052234;28;20187;-54
2020/12/22 05:50:02;;;;;;;9.47;7.00;;;6.00;99.90;;;;;;5051775;28;20190;-49
2020/12/22 05:52:29;;;;;;;7.72;6.80;;;6.00;99.90;;;;;;5050797;28;20223;-54
2020/12/22 05:54:56;;;;;;;7.47;6.68;;;6.10;99.90;;;;;;5050822;28;20547;-54
2020/12/22 05:57:23;;;;;;;9.32;7.60;;;6.10;99.90;;;;;;5042724;28;20186;-54
2020/12/22 05:59:50;;;;;;;7.85;6.60;;;6.10;99.90;;;;;;5050950;28;20190;-51
2020/12/22 06:02:27;;;;;;;8.80;7.55;;;6.10;99.90;;;;;;5049218;28;20293;-55
2020/12/22 06:05:03;;;;;;;8.38;6.28;;;6.10;99.90;;;;;;5051328;28;20178;-50
2020/12/22 06:07:29;;;;;;;7.03;6.07;;;6.20;99.90;;;;;;5050224;28;20193;-51
2020/12/22 06:09:57;;;;;;;7.45;6.38;;;6.20;99.90;;;;;;5050547;28;20189;-50
2020/12/22 06:12:24;;;;;;;7.00;6.28;;;6.20;99.90;;;;;;5039327;28;20267;-54
2020/12/22 06:14:54;;;;;;;10.38;7.60;;;6.20;99.90;;;;;;5031497;28;20192;-53
2020/12/22 06:17:20;;;;;;;8.82;6.70;;;6.20;99.90;;;;;;5049314;28;20184;-53
2020/12/22 06:19:47;;;;;;;8.85;6.93;;;6.20;99.90;;;;;;5050861;28;20215;-55
2020/12/22 06:22:17;;;;;;;10.75;6.60;;;6.20;99.90;;;;;;5044623;28;20225;-53
2020/12/22 06:24:52;;;;;;;9.05;6.80;;;6.20;99.90;;;;;;5050848;28;20198;-52
2020/12/22 06:27:17;;;;;;;7.57;6.78;;;6.30;99.90;;;;;;5050509;28;20544;-54
2020/12/22 06:29:45;;;;;;;8.63;6.90;;;6.20;99.90;;;;;;5050897;28;20246;-53
2020/12/22 06:32:17;;;;;;;7.22;5.78;;;6.30;99.90;;;;;;5043907;28;20182;-55
2020/12/22 06:34:43;;;;;;;7.35;6.20;;;6.30;99.90;;;;;;5050742;28;20266;-51
2020/12/22 06:37:10;;;;;;;7.82;6.38;;;6.30;99.90;;;;;;5049874;28;20206;-52
2020/12/22 06:39:49;;;;;;;8.80;6.60;;;6.40;99.90;;;;;;5050496;28;20257;-51
2020/12/22 06:42:30;;;;;;;7.18;5.95;;;6.40;99.90;;;;;;5049335;28;20225;-54
2020/12/22 06:45:16;;;;;;;6.82;6.15;;;6.40;99.90;;;;;;5050349;28;20301;-53
2020/12/22 06:47:41;;;;;;;7.10;6.15;;;6.50;99.90;;;;;;5039039;28;20233;-51
2020/12/22 06:50:07;;;;;;;8.20;6.60;;;6.50;99.90;;;;;;5050274;28;20190;-51
2020/12/22 06:52:36;;;;;;;7.60;6.07;;;6.50;99.90;;;;;;5048481;28;20186;-49
2020/12/22 06:55:06;;;;;;;9.73;6.97;;;6.50;99.90;;;;;;5050779;28;20276;-53
2020/12/22 06:57:49;;;;;;;9.00;6.63;;;6.50;99.90;;;;;;5049712;28;20560;-54
2020/12/22 07:00:26;;;;;;;9.43;7.03;;;6.50;99.90;;;;;;5051783;28;20265;-55
2020/12/22 07:03:16;;;;;;;7.47;6.38;;;6.50;99.90;;;;;;5050041;28;20178;-51
2020/12/22 07:05:46;;;;;;;8.50;6.72;;;6.50;99.90;;;;;;5050452;28;20190;-51
2020/12/22 07:08:14;;;;;;;8.35;6.20;;;6.50;99.90;;;;;;5040898;28;20190;-51
2020/12/22 07:10:44;;;;;;;9.07;7.18;;;6.60;99.90;;;;;;5048042;28;20206;-50
2020/12/22 07:13:12;;;;;;;9.80;6.85;;;6.60;99.90;;;;;;5052184;28;20616;-52
2020/12/22 07:15:43;;;;;;;9.15;7.20;;;6.70;99.90;;;;;;5048704;28;20182;-53
2020/12/22 07:18:18;;;;;;;9.10;6.95;;;6.70;99.90;;;;;;5034986;28;20192;-53
2020/12/22 07:20:45;;;;;;;9.30;7.45;;;6.80;99.90;;;;;;5058237;28;20220;-54
2020/12/22 07:23:12;;;;;;;9.20;7.65;;;6.90;99.90;;;;;;5050839;28;20842;-52
2020/12/22 07:25:39;;;;;;;13.20;10.15;;;6.90;99.90;;;;;;5049944;28;20268;-52
2020/12/22 07:28:06;;;;;;;9.02;7.82;;;7.00;99.90;;;;;;5049116;28;20182;-51
2020/12/22 07:30:32;;;;;;;9.07;7.75;;;7.00;99.90;;;;;;5049363;28;20259;-54
2020/12/22 07:33:01;;;;;;;8.70;7.37;;;7.00;99.90;;;;;;5042118;28;20226;-52
2020/12/22 07:35:28;;;;;;;10.75;7.97;;;7.10;99.90;;;;;;5048903;28;20935;-52
2020/12/22 07:38:04;;;;;;;10.23;7.40;;;7.20;99.90;;;;;;5043383;28;20224;-55
2020/12/22 07:40:30;;;;;;;9.60;6.97;;;7.30;99.90;;;;;;5051875;28;20193;-52
2020/12/22 07:43:08;;;;;;;9.80;7.40;;;7.30;99.90;;;;;;5058789;28;20187;-55
2020/12/22 07:45:34;;;;;;;8.77;6.82;;;7.40;99.90;;;;;;5048854;28;20226;-57
2020/12/22 07:48:03;;;;;;;9.68;7.10;;;7.50;99.90;;;;;;5049657;28;20183;-54
2020/12/22 07:50:29;;;;;;;8.52;6.95;;;7.50;99.90;;;;;;5048035;28;20224;-53
2020/12/22 07:52:58;;;;;;;9.33;7.10;;;7.50;99.90;;;;;;5047665;28;20772;-54
2020/12/22 07:55:24;;;;;;;8.27;7.00;;;7.50;99.90;;;;;;5049010;28;20230;-51
2020/12/22 07:57:51;;;;;;;9.87;8.33;;;7.60;99.90;;;;;;5047902;28;20188;-54
2020/12/22 08:00:19;;;;;;;8.57;6.67;;;7.60;99.90;;;;;;5031441;28;20208;-51
2020/12/22 08:02:45;;;;;;;8.35;6.65;;;7.70;99.90;;;;;;5058223;28;20430;-51
2020/12/22 08:05:12;;;;;;;7.87;7.07;;;7.70;99.90;;;;;;5049291;28;20672;-54
2020/12/22 08:07:41;;;;;;;8.30;6.90;;;7.70;99.90;;;;;;5049301;28;20211;-51
2020/12/22 08:10:13;;;;;;;7.83;6.77;;;7.80;99.90;;;;;;5049216;28;20753;-53
2020/12/22 08:12:40;;;;;;;7.53;6.13;;;7.80;99.90;;;;;;5048311;28;20441;-55
2020/12/22 08:15:06;;;;;;;9.17;6.53;;;7.90;99.90;;;;;;5040346;28;20437;-54
2020/12/22 08:17:42;;;;;;;7.47;6.50;;;7.90;99.90;;;;;;5046312;28;20765;-56
2020/12/22 08:20:08;;;;;;;8.50;7.20;;;7.90;99.90;;;;;;5040148;28;20489;-56
2020/12/22 08:22:36;;;;;;;8.00;6.47;;;7.90;99.90;;;;;;5045183;28;20967;-53
2020/12/22 08:25:03;;;;;;;7.40;6.30;;;8.00;99.90;;;;;;5048750;28;20514;-50
2020/12/22 08:27:32;;;;;;;8.10;6.10;;;8.00;99.90;;;;;;5050002;28;20786;-53
2020/12/22 08:29:58;;;;;;;8.30;5.90;;;8.00;99.90;;;;;;5057602;28;20420;-52
2020/12/22 08:32:27;;;;;;;6.63;5.60;;;8.10;99.90;;;;;;5029774;28;20495;-55
2020/12/22 08:34:54;;;;;;;6.77;5.87;;;8.10;99.90;;;;;;5048666;28;20439;-54
2020/12/22 08:37:26;;;;;;;7.10;6.23;;;8.20;99.90;;;;;;5048796;28;20458;-54
2020/12/22 08:39:53;;;;;;;7.07;5.73;;;8.20;99.90;;;;;;5039927;28;20443;-53
2020/12/22 08:42:20;;;;;;;7.70;6.40;;;8.20;99.90;;;;;;5051849;28;20521;-54
2020/12/22 08:44:52;;;;;;;6.60;5.57;;;8.30;99.90;;;;;;5053892;28;21309;-52
2020/12/22 08:47:20;;;;;;;6.10;5.50;;;8.30;99.90;;;;;;5046475;28;20435;-51
2020/12/22 08:49:49;;;;;;;5.97;5.03;;;8.20;99.90;;;;;;5044513;28;20423;-52
2020/12/22 08:52:19;;;;;;;6.33;5.57;;;8.30;99.90;;;;;;5047633;28;20452;-54
2020/12/22 08:54:47;;;;;;;7.00;5.30;;;8.30;99.90;;;;;;5047791;28;20485;-52
2020/12/22 08:57:18;;;;;;;5.37;4.87;;;8.40;99.90;;;;;;5047324;28;20424;-55
2020/12/22 08:59:46;;;;;;;6.00;5.40;;;8.40;99.90;;;;;;5043990;28;20437;-53
2020/12/22 09:02:32;;;;;;;5.90;5.30;;;8.50;99.90;;;;;;5046734;28;20981;-52
2020/12/22 09:04:58;;;;;;;6.40;5.00;;;8.50;99.90;;;;;;5047177;28;20411;-49
2020/12/22 09:07:25;;;;;;;6.10;5.00;;;8.60;99.90;;;;;;5046801;28;20423;-52
2020/12/22 09:09:52;;;;;;;5.47;4.83;;;8.60;99.90;;;;;;5047223;28;20416;-58
2020/12/22 09:12:17;;;;;;;5.73;5.00;;;8.70;99.90;;;;;;5046892;28;20443;-53
2020/12/22 09:14:46;;;;;;;6.13;5.40;;;8.80;99.90;;;;;;5047083;28;20416;-57
2020/12/22 09:17:13;;;;;;;5.57;4.97;;;8.90;99.90;;;;;;5046622;28;20536;-51
2020/12/22 09:19:49;;;;;;;7.10;5.60;;;9.00;99.90;;;;;;5029116;28;20473;-55
2020/12/22 09:22:20;;;;;;;5.90;5.07;;;9.10;99.90;;;;;;5048636;28;20506;-53
2020/12/22 09:24:52;;;;;;;6.47;5.30;;;9.20;99.90;;;;;;5042991;28;20950;-55
2020/12/22 09:27:30;;;;;;;5.33;4.80;;;9.30;99.90;;;;;;5046796;28;20413;-53
2020/12/22 09:29:56;;;;;;;5.43;4.70;;;9.50;99.90;;;;;;5044102;28;20439;-52
2020/12/22 09:32:23;;;;;;;5.63;4.53;;;9.60;99.90;;;;;;5042775;28;20425;-49
2020/12/22 09:34:49;;;;;;;4.90;4.17;;;9.70;99.90;;;;;;5045622;28;20486;-51
2020/12/22 09:37:15;;;;;;;6.07;4.40;;;9.80;99.90;;;;;;5048869;28;20440;-50
2020/12/22 09:39:40;;;;;;;5.00;3.57;;;9.90;99.90;;;;;;5050251;28;20693;-54
2020/12/22 09:42:06;;;;;;;5.43;3.97;;;10.10;99.90;;;;;;5049543;28;20452;-53
2020/12/22 09:44:34;;;;;;;3.40;3.10;;;10.20;99.90;;;;;;5049116;28;20225;-53
2020/12/22 09:46:59;;;;;;;4.07;3.67;;;10.50;99.90;;;;;;5049796;28;20421;-53
2020/12/22 09:49:25;;;;;;;4.50;3.30;;;10.70;99.90;;;;;;5049571;28;20501;-50
2020/12/22 09:51:52;;;;;;;3.67;3.37;;;10.90;99.90;;;;;;5049201;28;20218;-51
2020/12/22 09:54:24;;;;;;;6.40;4.70;;;11.10;99.90;;;;;;5049184;28;20432;-53
2020/12/22 09:56:50;;;;;;;4.23;3.37;;;11.20;97.50;;;;;;5050905;28;20451;-54
2020/12/22 09:59:17;;;;;;;4.03;3.30;;;11.40;92.10;;;;;;5047894;28;20404;-52
2020/12/22 10:01:43;;;;;;;3.63;3.33;;;11.60;87.10;;;;;;5050455;28;20458;-51
2020/12/22 10:04:09;;;;;;;3.57;3.27;;;11.60;71.00;;;;;;5050728;28;20439;-53
2020/12/22 10:06:35;;;;;;;4.60;3.80;;;11.60;68.50;;;;;;5061142;28;20428;-51
2020/12/22 10:09:01;;;;;;;3.60;3.30;;;11.70;64.20;;;;;;5033062;28;20559;-50
2020/12/22 10:11:34;;;;;;;3.47;3.17;;;11.60;61.30;;;;;;5051171;28;20189;-51
2020/12/22 10:13:59;;;;;;;4.37;3.67;;;11.70;69.00;;;;;;5049313;28;20249;-53
2020/12/22 10:16:25;;;;;;;3.33;3.03;;;11.70;63.40;;;;;;5050639;28;20514;-53
2020/12/22 10:18:51;;;;;;;4.57;3.77;;;11.70;53.90;;;;;;5050299;28;20185;-51
2020/12/22 10:21:19;;;;;;;3.60;3.07;;;11.70;58.60;;;;;;5054346;28;20864;-52
2020/12/22 10:23:46;;;;;;;3.87;3.40;;;11.70;56.00;;;;;;5031753;28;20447;-57
2020/12/22 10:26:15;;;;;;;3.77;3.17;;;11.90;59.90;;;;;;5050779;28;20432;-52
2020/12/22 10:28:42;;;;;;;2.93;2.67;;;12.10;62.70;;;;;;5050042;28;20428;-55
2020/12/22 10:31:19;;;;;;;3.03;2.73;;;12.70;43.70;;;;;;5049655;28;20518;-52
2020/12/22 10:33:45;;;;;;;1.97;1.10;;;13.70;21.20;;;;;;5056288;28;20422;-56
2020/12/22 10:36:13;;;;;;;2.50;2.00;;;14.70;1.00;;;;;;5049770;28;20436;-55
2020/12/22 10:38:39;;;;;;;0.90;0.90;;;15.90;1.00;;;;;;5050243;28;20880;-53
2020/12/22 10:41:04;;;;;;;1.03;0.93;;;17.10;99.90;;;;;;5050380;28;20551;-51
2020/12/22 10:43:30;;;;;;;1.00;0.90;;;18.00;99.90;;;;;;5049152;28;20225;-54
2020/12/22 10:46:00;;;;;;;0.80;0.80;;;18.50;99.90;;;;;;5049897;28;20193;-54
2020/12/22 10:48:25;;;;;;;1.00;1.00;;;18.80;99.90;;;;;;5049873;28;20461;-55
2020/12/22 10:50:51;;;;;;;1.10;1.00;;;19.00;72.30;;;;;;5050234;28;20444;-55
2020/12/22 10:53:17;;;;;;;0.80;0.80;;;19.20;99.90;;;;;;5049561;28;20185;-51
2020/12/22 10:55:43;;;;;;;1.00;1.00;;;19.20;1.00;;;;;;5047210;28;20448;-51
2020/12/22 10:58:08;;;;;;;0.90;0.90;;;19.20;1.00;;;;;;5048843;28;20182;-52
2020/12/22 11:00:34;;;;;;;1.10;1.00;;;19.20;1.00;;;;;;5047177;28;20285;-54
2020/12/22 11:03:05;;;;;;;1.17;1.07;;;19.30;1.00;;;;;;5049181;28;20189;-53
2020/12/22 11:08:15;;;;;;;0.87;0.87;;;19.10;1.00;;;;;;5052210;28;20435;-48
2020/12/22 11:10:41;;;;;;;1.00;1.00;;;18.80;1.00;;;;;;5046472;28;20812;-55
2020/12/22 11:13:07;;;;;;;0.90;0.90;;;18.50;99.90;;;;;;5047108;28;20188;-55
2020/12/22 11:15:33;;;;;;;0.90;0.90;;;18.00;99.90;;;;;;5042124;28;20247;-53
2020/12/22 11:17:59;;;;;;;1.00;0.90;;;18.20;1.00;;;;;;5050156;28;20437;-49
2020/12/22 11:20:24;;;;;;;0.97;0.97;;;18.20;1.00;;;;;;5047601;28;20424;-52
2020/12/22 11:22:50;;;;;;;0.97;0.97;;;18.00;1.00;;;;;;5047527;28;20177;-55
2020/12/22 11:25:16;;;;;;;1.17;1.17;;;17.80;99.90;;;;;;5048218;28;20208;-54
2020/12/22 11:27:42;;;;;;;1.00;1.00;;;18.30;99.90;;;;;;5047919;28;20182;-51
2020/12/22 11:30:08;;;;;;;1.30;1.20;;;18.80;99.90;;;;;;5047771;28;20427;-56
2020/12/22 11:32:34;;;;;;;1.00;1.00;;;18.90;99.90;;;;;;5048711;28;20187;-50
2020/12/22 11:35:00;;;;;;;1.00;1.00;;;19.20;1.00;;;;;;5047321;28;20486;-54
2020/12/22 11:37:26;;;;;;;1.80;1.40;;;19.70;99.90;;;;;;5048398;28;20436;-54
2020/12/22 11:39:52;;;;;;;1.00;1.00;;;20.20;96.80;;;;;;5056051;28;20205;-55
2020/12/22 11:42:19;;;;;;;1.13;1.13;;;20.20;1.00;;;;;;5059831;28;20473;-52
2020/12/22 11:44:45;;;;;;;1.53;1.43;;;19.40;99.90;;;;;;5049162;28;20515;-53
2020/12/22 11:47:11;;;;;;;1.60;1.50;;;18.70;1.00;;;;;;5052935;28;20431;-51
2020/12/22 11:49:36;;;;;;;1.30;1.30;;;18.40;96.30;;;;;;5056267;28;20585;-56
2020/12/22 11:52:02;;;;;;;1.43;1.23;;;18.30;99.90;;;;;;5059129;28;20451;-54
2020/12/22 11:54:27;;;;;;;1.20;1.20;;;18.10;1.00;;;;;;5053122;28;21135;-54
2020/12/22 11:56:53;;;;;;;1.33;1.30;;;18.00;1.00;;;;;;5045680;28;20203;-54
2020/12/22 11:59:19;;;;;;;1.20;1.10;;;17.70;99.90;;;;;;5043366;28;20204;-51
2020/12/22 12:01:45;;;;;;;1.13;1.13;;;17.30;1.00;;;;;;5052653;28;20351;-55
2020/12/22 12:04:11;;;;;;;1.10;1.10;;;17.20;99.90;;;;;;5065182;28;20786;-56
2020/12/22 12:06:43;;;;;;;1.33;1.10;;;17.30;99.90;;;;;;5068177;28;20449;-51
2020/12/22 12:09:09;;;;;;;1.50;1.40;;;17.60;22.10;;;;;;5056922;28;20443;-54
2020/12/22 12:11:34;;;;;;;1.23;1.10;;;18.10;99.90;;;;;;5068407;28;20939;-56
2020/12/22 12:14:00;;;;;;;1.37;1.30;;;18.40;99.90;;;;;;5068200;28;20323;-54
2020/12/22 12:16:25;;;;;;;1.33;1.23;;;18.40;92.00;;;;;;5051796;28;20186;-55
2020/12/22 12:18:51;;;;;;;1.17;1.17;;;18.50;99.90;;;;;;5050992;28;20220;-55
2020/12/22 12:21:17;;;;;;;1.30;1.30;;;18.70;1.00;;;;;;5047282;28;20586;-55
2020/12/22 12:23:43;;;;;;;1.23;1.23;;;18.70;1.00;;;;;;5048765;28;20186;-54
2020/12/22 12:26:11;;;;;;;1.30;1.20;;;18.20;99.90;;;;;;5047748;28;20420;-55
2020/12/22 12:28:42;;;;;;;1.20;1.20;;;17.80;1.00;;;;;;5047412;28;20941;-57
2020/12/22 12:31:13;;;;;;;1.20;1.20;;;17.30;99.90;;;;;;5047982;28;20428;-58
2020/12/22 12:33:39;;;;;;;1.20;1.20;;;17.20;99.90;;;;;;5048866;28;20530;-57
2020/12/22 12:36:05;;;;;;;1.23;1.23;;;17.00;99.90;;;;;;5047864;28;20532;-58
2020/12/22 12:38:31;;;;;;;1.53;1.43;;;16.80;1.00;;;;;;5047943;28;20509;-59
2020/12/22 12:40:56;;;;;;;1.70;1.60;;;16.70;1.00;;;;;;5048608;28;20462;-56
2020/12/22 12:43:22;;;;;;;1.70;1.60;;;16.70;1.00;;;;;;5047401;28;20223;-56
2020/12/22 12:45:48;;;;;;;1.30;1.20;;;16.70;1.00;;;;;;5048122;28;20193;-54
2020/12/22 12:48:13;;;;;;;1.47;1.37;;;16.80;19.50;;;;;;5047664;28;20181;-56
2020/12/22 12:50:39;;;;;;;1.33;1.30;;;16.70;4.40;;;;;;5048109;28;20189;-56
2020/12/22 12:53:04;;;;;;;1.20;1.20;;;16.80;1.00;;;;;;5042207;28;20191;-57
2020/12/22 12:55:30;;;;;;;1.37;1.37;;;17.00;1.00;;;;;;5044043;28;20272;-57